sensor_id;sensor_type;location;lat;lon;timestamp;temperature;humidity
79500;SHT31;76397;53.172;18.140;2024-03-23T00:55:41;8.66;82.80
79500;SHT31;76397;53.172;18.140;2024-03-23T00:58:08;8.63;82.67
79500;SHT31;76397;53.172;18.140;2024-03-23T01:00:35;8.65;82.68
79500;SHT31;76397;53.172;18.140;2024-03-23T01:03:02;8.57;82.65
79500;SHT31;76397;53.172;18.140;2024-03-23T01:05:28;8.55;82.85
79500;SHT31;76397;53.172;18.140;2024-03-23T01:07:55;8.49;82.88
79500;SHT31;76397;53.172;18.140;2024-03-23T01:10:22;8.46;82.95
79500;SHT31;76397;53.172;18.140;2024-03-23T01:12:49;8.42;82.97
79500;SHT31;76397;53.172;18.140;2024-03-23T01:15:16;8.39;83.01
79500;SHT31;76397;53.172;18.140;2024-03-23T01:17:42;8.33;83.16
79500;SHT31;76397;53.172;18.140;2024-03-23T01:20:09;8.35;83.30
79500;SHT31;76397;53.172;18.140;2024-03-23T01:22:36;8.43;83.25
79500;SHT31;76397;53.172;18.140;2024-03-23T01:25:03;8.52;83.15
79500;SHT31;76397;53.172;18.140;2024-03-23T01:27:30;8.56;82.96
79500;SHT31;76397;53.172;18.140;2024-03-23T01:29:56;8.45;83.02
79500;SHT31;76397;53.172;18.140;2024-03-23T01:32:23;8.44;83.19
79500;SHT31;76397;53.172;18.140;2024-03-23T01:34:50;8.53;83.11
79500;SHT31;76397;53.172;18.140;2024-03-23T01:37:16;8.58;82.98
79500;SHT31;76397;53.172;18.140;2024-03-23T01:39:43;8.60;82.89
79500;SHT31;76397;53.172;18.140;2024-03-23T01:42:10;8.63;82.88
79500;SHT31;76397;53.172;18.140;2024-03-23T01:44:36;8.62;82.78
79500;SHT31;76397;53.172;18.140;2024-03-23T01:47:04;8.62;82.79
79500;SHT31;76397;53.172;18.140;2024-03-23T01:49:33;8.63;82.88
79500;SHT31;76397;53.172;18.140;2024-03-23T01:52:00;8.58;82.80
79500;SHT31;76397;53.172;18.140;2024-03-23T01:54:28;8.52;82.80
79500;SHT31;76397;53.172;18.140;2024-03-23T01:56:56;8.43;82.94
79500;SHT31;76397;53.172;18.140;2024-03-23T01:59:23;8.37;83.11
79500;SHT31;76397;53.172;18.140;2024-03-23T02:01:50;8.31;83.24
79500;SHT31;76397;53.172;18.140;2024-03-23T02:04:17;8.26;83.39
79500;SHT31;76397;53.172;18.140;2024-03-23T02:06:44;8.25;83.51
79500;SHT31;76397;53.172;18.140;2024-03-23T02:09:11;8.25;83.60
79500;SHT31;76397;53.172;18.140;2024-03-23T02:11:38;8.30;83.59
79500;SHT31;76397;53.172;18.140;2024-03-23T02:14:05;8.35;83.47
79500;SHT31;76397;53.172;18.140;2024-03-23T02:16:32;8.40;83.34
79500;SHT31;76397;53.172;18.140;2024-03-23T02:18:59;8.39;83.24
79500;SHT31;76397;53.172;18.140;2024-03-23T02:21:25;8.37;83.28
79500;SHT31;76397;53.172;18.140;2024-03-23T02:23:53;8.38;83.20
79500;SHT31;76397;53.172;18.140;2024-03-23T02:26:20;8.41;83.08
79500;SHT31;76397;53.172;18.140;2024-03-23T02:28:47;8.36;83.07
79500;SHT31;76397;53.172;18.140;2024-03-23T02:31:13;8.37;83.15
79500;SHT31;76397;53.172;18.140;2024-03-23T02:33:41;8.34;83.12
79500;SHT31;76397;53.172;18.140;2024-03-23T02:36:08;8.27;83.26
79500;SHT31;76397;53.172;18.140;2024-03-23T02:38:34;8.22;83.41
79500;SHT31;76397;53.172;18.140;2024-03-23T02:41:04;8.23;83.50
79500;SHT31;76397;53.172;18.140;2024-03-23T02:43:32;8.22;83.56
79500;SHT31;76397;53.172;18.140;2024-03-23T02:45:58;8.16;83.57
79500;SHT31;76397;53.172;18.140;2024-03-23T02:48:25;8.16;83.72
79500;SHT31;76397;53.172;18.140;2024-03-23T02:50:52;8.19;83.79
79500;SHT31;76397;53.172;18.140;2024-03-23T02:53:20;8.21;83.80
79500;SHT31;76397;53.172;18.140;2024-03-23T02:55:48;8.31;83.67
79500;SHT31;76397;53.172;18.140;2024-03-23T02:58:14;8.39;83.59
79500;SHT31;76397;53.172;18.140;2024-03-23T03:00:41;8.46;83.44
79500;SHT31;76397;53.172;18.140;2024-03-23T03:03:08;8.48;83.31
79500;SHT31;76397;53.172;18.140;2024-03-23T03:05:35;8.46;83.30
79500;SHT31;76397;53.172;18.140;2024-03-23T03:08:02;8.46;83.30
79500;SHT31;76397;53.172;18.140;2024-03-23T03:10:29;8.46;83.24
79500;SHT31;76397;53.172;18.140;2024-03-23T03:12:56;8.44;83.22
79500;SHT31;76397;53.172;18.140;2024-03-23T03:15:23;8.42;83.26
79500;SHT31;76397;53.172;18.140;2024-03-23T03:17:50;8.39;83.30
79500;SHT31;76397;53.172;18.140;2024-03-23T03:20:16;8.38;83.39
79500;SHT31;76397;53.172;18.140;2024-03-23T03:22:44;8.35;83.49
79500;SHT31;76397;53.172;18.140;2024-03-23T03:25:10;8.36;83.50
79500;SHT31;76397;53.172;18.140;2024-03-23T03:27:37;8.35;83.45
79500;SHT31;76397;53.172;18.140;2024-03-23T03:30:04;8.33;83.51
79500;SHT31;76397;53.172;18.140;2024-03-23T03:32:32;8.24;83.63
79500;SHT31;76397;53.172;18.140;2024-03-23T03:34:59;8.20;83.81
79500;SHT31;76397;53.172;18.140;2024-03-23T03:37:25;8.17;83.83
79500;SHT31;76397;53.172;18.140;2024-03-23T03:39:52;8.11;83.96
79500;SHT31;76397;53.172;18.140;2024-03-23T03:42:18;8.08;84.03
79500;SHT31;76397;53.172;18.140;2024-03-23T03:44:45;8.07;84.02
79500;SHT31;76397;53.172;18.140;2024-03-23T03:47:12;8.07;84.01
79500;SHT31;76397;53.172;18.140;2024-03-23T03:49:38;8.05;84.02
79500;SHT31;76397;53.172;18.140;2024-03-23T03:52:05;8.01;84.20
79500;SHT31;76397;53.172;18.140;2024-03-23T03:54:32;7.95;84.22
79500;SHT31;76397;53.172;18.140;2024-03-23T03:56:59;7.91;84.31
79500;SHT31;76397;53.172;18.140;2024-03-23T03:59:26;7.96;84.32
79500;SHT31;76397;53.172;18.140;2024-03-23T04:01:52;8.02;84.29
79500;SHT31;76397;53.172;18.140;2024-03-23T04:04:19;8.07;84.23
79500;SHT31;76397;53.172;18.140;2024-03-23T04:06:46;8.13;84.04
79500;SHT31;76397;53.172;18.140;2024-03-23T04:09:13;8.17;83.90
79500;SHT31;76397;53.172;18.140;2024-03-23T04:11:41;8.18;83.94
79500;SHT31;76397;53.172;18.140;2024-03-23T04:14:08;8.24;83.97
79500;SHT31;76397;53.172;18.140;2024-03-23T04:16:35;8.25;83.87
79500;SHT31;76397;53.172;18.140;2024-03-23T04:19:02;8.28;83.72
79500;SHT31;76397;53.172;18.140;2024-03-23T04:21:29;8.28;83.61
79500;SHT31;76397;53.172;18.140;2024-03-23T04:23:55;8.20;83.61
79500;SHT31;76397;53.172;18.140;2024-03-23T04:26:22;8.16;83.84
79500;SHT31;76397;53.172;18.140;2024-03-23T04:28:48;8.14;83.90
79500;SHT31;76397;53.172;18.140;2024-03-23T04:31:15;8.08;84.07
79500;SHT31;76397;53.172;18.140;2024-03-23T04:33:42;8.13;84.12
79500;SHT31;76397;53.172;18.140;2024-03-23T04:36:08;8.20;84.02
79500;SHT31;76397;53.172;18.140;2024-03-23T04:38:36;8.26;83.83
79500;SHT31;76397;53.172;18.140;2024-03-23T04:41:02;8.18;83.70
79500;SHT31;76397;53.172;18.140;2024-03-23T04:43:29;8.10;83.87
79500;SHT31;76397;53.172;18.140;2024-03-23T04:45:56;8.09;83.97
79500;SHT31;76397;53.172;18.140;2024-03-23T04:48:23;8.20;84.11
79500;SHT31;76397;53.172;18.140;2024-03-23T04:50:54;8.33;83.90
79500;SHT31;76397;53.172;18.140;2024-03-23T04:53:24;8.33;83.75
79500;SHT31;76397;53.172;18.140;2024-03-23T04:55:55;8.28;83.78
79500;SHT31;76397;53.172;18.140;2024-03-23T04:58:23;8.27;83.72
79500;SHT31;76397;53.172;18.140;2024-03-23T05:00:56;8.24;83.68
79500;SHT31;76397;53.172;18.140;2024-03-23T05:03:23;8.22;83.57
79500;SHT31;76397;53.172;18.140;2024-03-23T05:05:50;8.27;83.55
79500;SHT31;76397;53.172;18.140;2024-03-23T05:08:17;8.35;83.43
79500;SHT31;76397;53.172;18.140;2024-03-23T05:10:44;8.29;83.27
79500;SHT31;76397;53.172;18.140;2024-03-23T05:13:11;8.19;83.40
79500;SHT31;76397;53.172;18.140;2024-03-23T05:15:38;8.10;83.51
79500;SHT31;76397;53.172;18.140;2024-03-23T05:18:04;8.09;83.60
79500;SHT31;76397;53.172;18.140;2024-03-23T05:20:32;8.01;83.64
79500;SHT31;76397;53.172;18.140;2024-03-23T05:22:59;8.02;83.89
79500;SHT31;76397;53.172;18.140;2024-03-23T05:25:26;8.05;83.77
79500;SHT31;76397;53.172;18.140;2024-03-23T05:27:53;8.01;83.70
79500;SHT31;76397;53.172;18.140;2024-03-23T05:30:19;7.96;83.72
79500;SHT31;76397;53.172;18.140;2024-03-23T05:32:46;7.97;83.90
79500;SHT31;76397;53.172;18.140;2024-03-23T05:35:12;8.13;83.90
79500;SHT31;76397;53.172;18.140;2024-03-23T05:37:39;8.27;83.69
79500;SHT31;76397;53.172;18.140;2024-03-23T05:40:06;8.39;83.52
79500;SHT31;76397;53.172;18.140;2024-03-23T05:42:35;8.51;83.37
79500;SHT31;76397;53.172;18.140;2024-03-23T05:45:02;8.55;83.26
79500;SHT31;76397;53.172;18.140;2024-03-23T05:47:32;8.49;83.22
79500;SHT31;76397;53.172;18.140;2024-03-23T05:49:59;8.57;83.28
79500;SHT31;76397;53.172;18.140;2024-03-23T05:52:26;8.65;83.07
79500;SHT31;76397;53.172;18.140;2024-03-23T05:54:53;8.72;82.88
79500;SHT31;76397;53.172;18.140;2024-03-23T05:57:20;8.71;82.82
79500;SHT31;76397;53.172;18.140;2024-03-23T05:59:47;8.73;82.80
79500;SHT31;76397;53.172;18.140;2024-03-23T06:02:13;8.80;82.80
79500;SHT31;76397;53.172;18.140;2024-03-23T06:04:40;8.94;82.63
79500;SHT31;76397;53.172;18.140;2024-03-23T06:07:07;9.08;82.47
79500;SHT31;76397;53.172;18.140;2024-03-23T06:09:42;9.20;82.38
79500;SHT31;76397;53.172;18.140;2024-03-23T06:12:09;9.16;82.24
79500;SHT31;76397;53.172;18.140;2024-03-23T06:14:35;9.10;82.42
79500;SHT31;76397;53.172;18.140;2024-03-23T06:17:02;9.02;82.41
79500;SHT31;76397;53.172;18.140;2024-03-23T06:19:29;9.02;82.49
79500;SHT31;76397;53.172;18.140;2024-03-23T06:21:56;9.00;82.46
79500;SHT31;76397;53.172;18.140;2024-03-23T06:24:22;8.97;82.40
79500;SHT31;76397;53.172;18.140;2024-03-23T06:26:50;8.81;82.40
79500;SHT31;76397;53.172;18.140;2024-03-23T06:29:17;8.73;82.63
79500;SHT31;76397;53.172;18.140;2024-03-23T06:31:44;8.67;82.49
79500;SHT31;76397;53.172;18.140;2024-03-23T06:34:18;8.71;82.65
79500;SHT31;76397;53.172;18.140;2024-03-23T06:36:44;8.73;82.56
79500;SHT31;76397;53.172;18.140;2024-03-23T06:39:13;8.75;82.49
79500;SHT31;76397;53.172;18.140;2024-03-23T06:41:42;8.78;82.23
79500;SHT31;76397;53.172;18.140;2024-03-23T06:44:09;8.80;82.04
79500;SHT31;76397;53.172;18.140;2024-03-23T06:46:36;8.81;82.18
79500;SHT31;76397;53.172;18.140;2024-03-23T06:49:02;8.83;82.22
79500;SHT31;76397;53.172;18.140;2024-03-23T06:51:29;8.76;82.24
79500;SHT31;76397;53.172;18.140;2024-03-23T06:53:56;8.80;82.36
79500;SHT31;76397;53.172;18.140;2024-03-23T06:56:22;8.89;82.28
79500;SHT31;76397;53.172;18.140;2024-03-23T06:58:49;8.94;82.24
79500;SHT31;76397;53.172;18.140;2024-03-23T07:01:16;8.99;82.17
79500;SHT31;76397;53.172;18.140;2024-03-23T07:03:42;9.03;82.21
79500;SHT31;76397;53.172;18.140;2024-03-23T07:06:09;8.99;82.17
79500;SHT31;76397;53.172;18.140;2024-03-23T07:08:36;8.92;82.21
79500;SHT31;76397;53.172;18.140;2024-03-23T07:11:03;8.86;82.22
79500;SHT31;76397;53.172;18.140;2024-03-23T07:13:31;8.82;82.28
79500;SHT31;76397;53.172;18.140;2024-03-23T07:15:57;8.81;82.11
79500;SHT31;76397;53.172;18.140;2024-03-23T07:18:26;8.77;82.10
79500;SHT31;76397;53.172;18.140;2024-03-23T07:20:53;8.69;82.18
79500;SHT31;76397;53.172;18.140;2024-03-23T07:23:24;8.57;82.36
79500;SHT31;76397;53.172;18.140;2024-03-23T07:26:01;8.48;82.51
79500;SHT31;76397;53.172;18.140;2024-03-23T07:28:34;8.44;82.55
79500;SHT31;76397;53.172;18.140;2024-03-23T07:31:03;8.36;82.72
79500;SHT31;76397;53.172;18.140;2024-03-23T07:33:44;8.35;82.88
79500;SHT31;76397;53.172;18.140;2024-03-23T07:36:13;8.39;82.70
79500;SHT31;76397;53.172;18.140;2024-03-23T07:38:41;8.35;82.66
79500;SHT31;76397;53.172;18.140;2024-03-23T07:41:09;8.35;82.81
79500;SHT31;76397;53.172;18.140;2024-03-23T07:43:38;8.43;82.75
79500;SHT31;76397;53.172;18.140;2024-03-23T07:46:05;8.56;82.76
79500;SHT31;76397;53.172;18.140;2024-03-23T07:48:32;8.69;82.42
79500;SHT31;76397;53.172;18.140;2024-03-23T07:51:00;8.69;82.11
79500;SHT31;76397;53.172;18.140;2024-03-23T07:53:36;8.52;81.65
79500;SHT31;76397;53.172;18.140;2024-03-23T07:56:05;8.52;82.09
79500;SHT31;76397;53.172;18.140;2024-03-23T07:58:34;8.48;82.17
79500;SHT31;76397;53.172;18.140;2024-03-23T08:01:04;8.37;82.17
79500;SHT31;76397;53.172;18.140;2024-03-23T08:03:36;8.23;82.28
79500;SHT31;76397;53.172;18.140;2024-03-23T08:06:14;8.14;82.62
79500;SHT31;76397;53.172;18.140;2024-03-23T08:08:47;8.06;82.91
79500;SHT31;76397;53.172;18.140;2024-03-23T08:11:29;8.07;83.02
79500;SHT31;76397;53.172;18.140;2024-03-23T08:13:57;7.99;82.73
79500;SHT31;76397;53.172;18.140;2024-03-23T08:16:25;7.91;82.75
79500;SHT31;76397;53.172;18.140;2024-03-23T08:18:51;7.83;82.74
79500;SHT31;76397;53.172;18.140;2024-03-23T08:21:19;7.80;82.81
79500;SHT31;76397;53.172;18.140;2024-03-23T08:23:45;7.80;82.94
79500;SHT31;76397;53.172;18.140;2024-03-23T08:26:12;7.83;83.00
79500;SHT31;76397;53.172;18.140;2024-03-23T08:28:41;7.82;83.11
79500;SHT31;76397;53.172;18.140;2024-03-23T08:31:08;7.82;83.06
79500;SHT31;76397;53.172;18.140;2024-03-23T08:33:37;7.88;83.08
79500;SHT31;76397;53.172;18.140;2024-03-23T08:36:08;7.91;82.72
79500;SHT31;76397;53.172;18.140;2024-03-23T08:38:38;7.94;82.79
79500;SHT31;76397;53.172;18.140;2024-03-23T08:41:09;8.05;82.80
79500;SHT31;76397;53.172;18.140;2024-03-23T08:43:40;8.10;82.52
79500;SHT31;76397;53.172;18.140;2024-03-23T08:48:40;8.23;82.64
79500;SHT31;76397;53.172;18.140;2024-03-23T08:51:13;8.13;82.62
79500;SHT31;76397;53.172;18.140;2024-03-23T08:53:42;8.11;82.65
79500;SHT31;76397;53.172;18.140;2024-03-23T08:56:09;7.97;82.32
79500;SHT31;76397;53.172;18.140;2024-03-23T08:58:38;7.82;82.78
79500;SHT31;76397;53.172;18.140;2024-03-23T09:01:06;7.77;82.81
79500;SHT31;76397;53.172;18.140;2024-03-23T09:03:42;7.67;82.81
79500;SHT31;76397;53.172;18.140;2024-03-23T09:06:09;7.49;82.96
79500;SHT31;76397;53.172;18.140;2024-03-23T09:08:39;7.46;83.36
79500;SHT31;76397;53.172;18.140;2024-03-23T09:11:07;7.47;83.33
79500;SHT31;76397;53.172;18.140;2024-03-23T09:13:37;7.45;83.28
79500;SHT31;76397;53.172;18.140;2024-03-23T09:16:05;7.42;83.27
79500;SHT31;76397;53.172;18.140;2024-03-23T09:18:33;7.46;83.38
79500;SHT31;76397;53.172;18.140;2024-03-23T09:21:02;7.56;83.53
79500;SHT31;76397;53.172;18.140;2024-03-23T09:23:30;7.62;83.26
79500;SHT31;76397;53.172;18.140;2024-03-23T09:25:57;7.50;83.50
79500;SHT31;76397;53.172;18.140;2024-03-23T09:28:24;7.39;83.30
79500;SHT31;76397;53.172;18.140;2024-03-23T09:30:50;7.29;83.57
79500;SHT31;76397;53.172;18.140;2024-03-23T09:33:17;7.22;83.65
79500;SHT31;76397;53.172;18.140;2024-03-23T09:35:44;7.09;83.49
79500;SHT31;76397;53.172;18.140;2024-03-23T09:38:11;6.95;83.54
79500;SHT31;76397;53.172;18.140;2024-03-23T09:40:41;6.95;83.72
79500;SHT31;76397;53.172;18.140;2024-03-23T09:43:09;6.97;83.70
79500;SHT31;76397;53.172;18.140;2024-03-23T09:45:38;7.02;83.92
79500;SHT31;76397;53.172;18.140;2024-03-23T09:48:10;7.05;84.01
79500;SHT31;76397;53.172;18.140;2024-03-23T09:50:40;7.04;83.86
79500;SHT31;76397;53.172;18.140;2024-03-23T09:53:12;7.11;83.86
79500;SHT31;76397;53.172;18.140;2024-03-23T09:55:40;7.11;83.71
79500;SHT31;76397;53.172;18.140;2024-03-23T09:58:12;7.08;83.69
79500;SHT31;76397;53.172;18.140;2024-03-23T10:00:40;7.01;83.34
79500;SHT31;76397;53.172;18.140;2024-03-23T10:03:07;6.93;83.22
79500;SHT31;76397;53.172;18.140;2024-03-23T10:05:35;6.87;83.55
79500;SHT31;76397;53.172;18.140;2024-03-23T10:08:19;6.85;83.61
79500;SHT31;76397;53.172;18.140;2024-03-23T10:10:46;6.77;83.44
79500;SHT31;76397;53.172;18.140;2024-03-23T10:13:25;6.76;83.26
79500;SHT31;76397;53.172;18.140;2024-03-23T10:15:58;6.85;83.33
79500;SHT31;76397;53.172;18.140;2024-03-23T10:18:26;6.91;82.77
79500;SHT31;76397;53.172;18.140;2024-03-23T10:21:08;6.98;82.36
79500;SHT31;76397;53.172;18.140;2024-03-23T10:23:38;7.15;82.37
79500;SHT31;76397;53.172;18.140;2024-03-23T10:26:19;7.31;82.15
79500;SHT31;76397;53.172;18.140;2024-03-23T10:31:19;7.63;82.13
79500;SHT31;76397;53.172;18.140;2024-03-23T10:33:47;7.74;81.81
79500;SHT31;76397;53.172;18.140;2024-03-23T10:36:15;7.66;80.85
79500;SHT31;76397;53.172;18.140;2024-03-23T10:38:44;7.66;81.07
79500;SHT31;76397;53.172;18.140;2024-03-23T10:41:11;7.62;80.05
79500;SHT31;76397;53.172;18.140;2024-03-23T10:43:38;7.51;80.26
79500;SHT31;76397;53.172;18.140;2024-03-23T10:46:05;7.49;80.25
79500;SHT31;76397;53.172;18.140;2024-03-23T10:48:32;7.54;80.70
79500;SHT31;76397;53.172;18.140;2024-03-23T10:50:59;7.61;81.05
79500;SHT31;76397;53.172;18.140;2024-03-23T10:53:27;7.61;81.04
79500;SHT31;76397;53.172;18.140;2024-03-23T10:55:55;7.65;81.04
79500;SHT31;76397;53.172;18.140;2024-03-23T10:58:27;7.67;80.78
79500;SHT31;76397;53.172;18.140;2024-03-23T11:01:00;7.59;80.59
79500;SHT31;76397;53.172;18.140;2024-03-23T11:03:29;7.50;80.59
79500;SHT31;76397;53.172;18.140;2024-03-23T11:05:58;7.47;80.40
79500;SHT31;76397;53.172;18.140;2024-03-23T11:08:30;7.49;80.52
79500;SHT31;76397;53.172;18.140;2024-03-23T11:14:00;7.29;80.06
79500;SHT31;76397;53.172;18.140;2024-03-23T11:16:58;7.39;80.15
79500;SHT31;76397;53.172;18.140;2024-03-23T11:19:36;7.50;80.19
79500;SHT31;76397;53.172;18.140;2024-03-23T11:22:04;7.53;80.12
79500;SHT31;76397;53.172;18.140;2024-03-23T11:24:32;7.57;80.09
79500;SHT31;76397;53.172;18.140;2024-03-23T11:26:59;7.58;79.54
79500;SHT31;76397;53.172;18.140;2024-03-23T11:29:30;7.49;79.15
79500;SHT31;76397;53.172;18.140;2024-03-23T11:31:57;7.51;79.83
79500;SHT31;76397;53.172;18.140;2024-03-23T11:34:25;7.55;80.13
79500;SHT31;76397;53.172;18.140;2024-03-23T11:36:53;7.64;80.05
79500;SHT31;76397;53.172;18.140;2024-03-23T11:39:31;7.66;79.54
79500;SHT31;76397;53.172;18.140;2024-03-23T11:41:57;7.60;79.12
79500;SHT31;76397;53.172;18.140;2024-03-23T11:44:25;7.54;79.52
79500;SHT31;76397;53.172;18.140;2024-03-23T11:46:52;7.54;79.86
79500;SHT31;76397;53.172;18.140;2024-03-23T11:49:28;7.59;79.91
79500;SHT31;76397;53.172;18.140;2024-03-23T11:51:56;7.52;79.80
79500;SHT31;76397;53.172;18.140;2024-03-23T11:54:23;7.45;80.08
79500;SHT31;76397;53.172;18.140;2024-03-23T11:56:55;7.43;80.22
79500;SHT31;76397;53.172;18.140;2024-03-23T11:59:36;7.34;80.38
79500;SHT31;76397;53.172;18.140;2024-03-23T12:02:10;7.28;80.37
79500;SHT31;76397;53.172;18.140;2024-03-23T12:04:40;7.23;80.48
79500;SHT31;76397;53.172;18.140;2024-03-23T12:07:09;7.15;80.62
79500;SHT31;76397;53.172;18.140;2024-03-23T12:10:02;7.08;80.97
79500;SHT31;76397;53.172;18.140;2024-03-23T12:12:31;7.02;81.16
79500;SHT31;76397;53.172;18.140;2024-03-23T12:15:03;7.05;81.28
79500;SHT31;76397;53.172;18.140;2024-03-23T12:17:32;7.06;81.23
79500;SHT31;76397;53.172;18.140;2024-03-23T12:19:59;7.04;81.18
79500;SHT31;76397;53.172;18.140;2024-03-23T12:22:25;7.04;81.30
79500;SHT31;76397;53.172;18.140;2024-03-23T12:24:53;7.05;81.40
79500;SHT31;76397;53.172;18.140;2024-03-23T12:27:19;7.07;81.27
79500;SHT31;76397;53.172;18.140;2024-03-23T12:29:46;7.11;81.51
79500;SHT31;76397;53.172;18.140;2024-03-23T12:32:13;7.04;81.47
79500;SHT31;76397;53.172;18.140;2024-03-23T12:34:41;6.92;81.72
79500;SHT31;76397;53.172;18.140;2024-03-23T12:37:08;6.86;82.26
79500;SHT31;76397;53.172;18.140;2024-03-23T12:39:38;6.77;82.13
79500;SHT31;76397;53.172;18.140;2024-03-23T12:42:05;6.68;82.32
79500;SHT31;76397;53.172;18.140;2024-03-23T12:44:32;6.58;82.50
79500;SHT31;76397;53.172;18.140;2024-03-23T12:46:59;6.54;82.62
79500;SHT31;76397;53.172;18.140;2024-03-23T12:49:25;6.51;82.57
79500;SHT31;76397;53.172;18.140;2024-03-23T12:51:55;6.49;82.48
79500;SHT31;76397;53.172;18.140;2024-03-23T12:54:23;6.40;82.46
79500;SHT31;76397;53.172;18.140;2024-03-23T12:56:50;6.25;82.53
79500;SHT31;76397;53.172;18.140;2024-03-23T12:59:17;6.16;82.88
79500;SHT31;76397;53.172;18.140;2024-03-23T13:01:44;6.11;83.12
79500;SHT31;76397;53.172;18.140;2024-03-23T13:04:12;6.07;83.42
79500;SHT31;76397;53.172;18.140;2024-03-23T13:06:38;6.04;83.67
79500;SHT31;76397;53.172;18.140;2024-03-23T13:09:05;6.00;83.84
79500;SHT31;76397;53.172;18.140;2024-03-23T13:11:32;5.98;83.90
79500;SHT31;76397;53.172;18.140;2024-03-23T13:13:58;5.97;83.86
79500;SHT31;76397;53.172;18.140;2024-03-23T13:16:25;5.99;83.93
79500;SHT31;76397;53.172;18.140;2024-03-23T13:18:52;6.04;83.49
79500;SHT31;76397;53.172;18.140;2024-03-23T13:21:19;5.97;83.08
79500;SHT31;76397;53.172;18.140;2024-03-23T13:23:48;5.90;83.15
79500;SHT31;76397;53.172;18.140;2024-03-23T13:26:16;5.85;83.50
79500;SHT31;76397;53.172;18.140;2024-03-23T13:28:43;5.83;83.56
79500;SHT31;76397;53.172;18.140;2024-03-23T13:31:11;5.84;83.47
79500;SHT31;76397;53.172;18.140;2024-03-23T13:33:37;5.77;83.16
79500;SHT31;76397;53.172;18.140;2024-03-23T13:36:04;5.70;83.20
79500;SHT31;76397;53.172;18.140;2024-03-23T13:38:31;5.65;83.25
79500;SHT31;76397;53.172;18.140;2024-03-23T13:40:59;5.58;83.43
79500;SHT31;76397;53.172;18.140;2024-03-23T13:43:27;5.54;83.39
79500;SHT31;76397;53.172;18.140;2024-03-23T13:45:57;5.53;83.50
79500;SHT31;76397;53.172;18.140;2024-03-23T13:48:26;5.52;83.72
79500;SHT31;76397;53.172;18.140;2024-03-23T13:50:58;5.48;83.72
79500;SHT31;76397;53.172;18.140;2024-03-23T13:53:31;5.45;83.57
79500;SHT31;76397;53.172;18.140;2024-03-23T13:56:01;5.42;83.69
79500;SHT31;76397;53.172;18.140;2024-03-23T13:58:27;5.41;83.75
79500;SHT31;76397;53.172;18.140;2024-03-23T14:00:56;5.34;83.68
79500;SHT31;76397;53.172;18.140;2024-03-23T14:03:24;5.33;83.76
79500;SHT31;76397;53.172;18.140;2024-03-23T14:05:51;5.31;83.84
79500;SHT31;76397;53.172;18.140;2024-03-23T14:08:19;5.30;84.12
79500;SHT31;76397;53.172;18.140;2024-03-23T14:10:48;5.32;84.16
79500;SHT31;76397;53.172;18.140;2024-03-23T14:13:14;5.35;84.35
79500;SHT31;76397;53.172;18.140;2024-03-23T14:15:41;5.38;84.32
79500;SHT31;76397;53.172;18.140;2024-03-23T14:18:08;5.38;84.10
79500;SHT31;76397;53.172;18.140;2024-03-23T14:20:35;5.38;83.97
79500;SHT31;76397;53.172;18.140;2024-03-23T14:23:02;5.38;83.82
79500;SHT31;76397;53.172;18.140;2024-03-23T14:25:29;5.33;83.87
79500;SHT31;76397;53.172;18.140;2024-03-23T14:27:56;5.34;84.21
79500;SHT31;76397;53.172;18.140;2024-03-23T14:30:24;5.41;84.30
79500;SHT31;76397;53.172;18.140;2024-03-23T14:32:51;5.43;84.22
79500;SHT31;76397;53.172;18.140;2024-03-23T14:35:17;5.48;84.18
79500;SHT31;76397;53.172;18.140;2024-03-23T14:37:44;5.46;84.09
79500;SHT31;76397;53.172;18.140;2024-03-23T14:40:13;5.41;83.93
79500;SHT31;76397;53.172;18.140;2024-03-23T14:42:39;5.40;83.90
79500;SHT31;76397;53.172;18.140;2024-03-23T14:45:07;5.39;83.90
79500;SHT31;76397;53.172;18.140;2024-03-23T14:47:35;5.37;83.95
79500;SHT31;76397;53.172;18.140;2024-03-23T14:50:01;5.32;84.05
79500;SHT31;76397;53.172;18.140;2024-03-23T14:52:29;5.22;83.88
79500;SHT31;76397;53.172;18.140;2024-03-23T14:54:56;5.13;84.00
79500;SHT31;76397;53.172;18.140;2024-03-23T14:57:23;5.09;84.09
79500;SHT31;76397;53.172;18.140;2024-03-23T14:59:49;5.09;84.20
79500;SHT31;76397;53.172;18.140;2024-03-23T15:02:16;5.12;84.18
79500;SHT31;76397;53.172;18.140;2024-03-23T15:04:43;5.11;84.03
79500;SHT31;76397;53.172;18.140;2024-03-23T15:07:09;5.09;84.04
79500;SHT31;76397;53.172;18.140;2024-03-23T15:09:36;5.09;84.30
79500;SHT31;76397;53.172;18.140;2024-03-23T15:12:02;5.07;84.46
79500;SHT31;76397;53.172;18.140;2024-03-23T15:14:30;5.13;84.41
79500;SHT31;76397;53.172;18.140;2024-03-23T15:16:56;5.13;84.49
79500;SHT31;76397;53.172;18.140;2024-03-23T15:19:23;5.17;84.37
79500;SHT31;76397;53.172;18.140;2024-03-23T15:21:50;5.10;83.86
79500;SHT31;76397;53.172;18.140;2024-03-23T15:24:17;5.01;84.04
79500;SHT31;76397;53.172;18.140;2024-03-23T15:26:43;5.05;84.10
79500;SHT31;76397;53.172;18.140;2024-03-23T15:29:10;5.04;84.11
79500;SHT31;76397;53.172;18.140;2024-03-23T15:31:38;5.06;84.12
79500;SHT31;76397;53.172;18.140;2024-03-23T15:34:05;5.12;84.06
79500;SHT31;76397;53.172;18.140;2024-03-23T15:36:38;5.11;84.02
79500;SHT31;76397;53.172;18.140;2024-03-23T15:39:05;5.10;84.08
79500;SHT31;76397;53.172;18.140;2024-03-23T15:41:32;5.13;84.10
79500;SHT31;76397;53.172;18.140;2024-03-23T15:44:01;5.16;84.03
79500;SHT31;76397;53.172;18.140;2024-03-23T15:46:28;5.17;84.09
79500;SHT31;76397;53.172;18.140;2024-03-23T15:48:55;5.26;84.10
79500;SHT31;76397;53.172;18.140;2024-03-23T15:51:22;5.29;83.89
79500;SHT31;76397;53.172;18.140;2024-03-23T15:53:48;5.25;83.85
79500;SHT31;76397;53.172;18.140;2024-03-23T15:56:18;5.27;83.94
79500;SHT31;76397;53.172;18.140;2024-03-23T15:58:45;5.33;83.98
79500;SHT31;76397;53.172;18.140;2024-03-23T16:01:12;5.38;83.83
79500;SHT31;76397;53.172;18.140;2024-03-23T16:03:39;5.40;83.55
79500;SHT31;76397;53.172;18.140;2024-03-23T16:06:06;5.30;83.29
79500;SHT31;76397;53.172;18.140;2024-03-23T16:08:34;5.29;83.20
79500;SHT31;76397;53.172;18.140;2024-03-23T16:11:04;5.32;83.17
79500;SHT31;76397;53.172;18.140;2024-03-23T16:13:33;5.41;83.11
79500;SHT31;76397;53.172;18.140;2024-03-23T16:16:01;5.41;82.95
79500;SHT31;76397;53.172;18.140;2024-03-23T16:18:36;5.30;83.11
79500;SHT31;76397;53.172;18.140;2024-03-23T16:21:08;5.25;83.30
79500;SHT31;76397;53.172;18.140;2024-03-23T16:23:35;5.24;83.40
79500;SHT31;76397;53.172;18.140;2024-03-23T16:26:07;5.20;83.48
79500;SHT31;76397;53.172;18.140;2024-03-23T16:28:36;5.18;83.64
79500;SHT31;76397;53.172;18.140;2024-03-23T16:31:05;5.16;83.70
79500;SHT31;76397;53.172;18.140;2024-03-23T16:33:37;5.13;83.65
79500;SHT31;76397;53.172;18.140;2024-03-23T16:36:11;5.12;83.59
79500;SHT31;76397;53.172;18.140;2024-03-23T16:38:38;5.10;83.60